Ital Oriente — A8LN2 — position and weather

sailwx.info

Track history (hours):
 
Tides and Currents Weather Stations Pressure Air Temp Water Temp Dewpoint Dewpoint Depression Visibility Wind Speed Wind Dir Waves Ship Positions

Ital Oriente

Last reported at 2014-Jul-26 08:26 UTC. Time now 2014-Jul-26 09:09 UTC.
Position N 40°56' E 028°53'.

Length 222 m; draft 9.1 m.

Type: Cargo ship. MMSI: 636091278.

Date/timePositionNaut miles runAvg speedWind from/ knotsBaromVisibWave heightAir tempDewpointWater temp
2014-Jul-26 08:26N 40°56' E 028°53'7 3.5
2014-Jul-26 06:24N 41°00' E 029°01'0 0.0
2014-Jul-26 05:24N 41°00' E 029°01'0 0.0
2014-Jul-26 04:18N 41°00' E 029°01'0 0.0
2014-Jul-26 01:30N 41°00' E 029°01'0 0.0
2014-Jul-26 00:30N 41°00' E 029°01'0 0.0
2014-Jul-25 23:24N 41°00' E 029°01'0 0.5
2014-Jul-25 22:27N 41°00' E 028°60'5 5.8
2014-Jul-25 21:33N 40°55' E 028°58'1715.7
2014-Jul-25 20:28N 40°50' E 028°37'14614.7
2014-Jul-25 10:31N 39°44' E 025°45'5714.3
2014-Jul-25 06:33N 38°53' E 025°14'6416.1
2014-Jul-25 02:33N 37°56' E 024°35'3115.7
2014-Jul-25 00:33N 37°36' E 024°05'1515.3
2014-Jul-24 23:33N 37°37' E 023°46'1615.3
2014-Jul-24 22:33N 37°51' E 023°37'7 3.2
2014-Jul-24 20:31N 37°57' E 023°35'0 0.0
2014-Jul-24 19:31N 37°57' E 023°35'0 0.0
2014-Jul-24 18:31N 37°57' E 023°35'0 0.0
2014-Jul-24 17:31N 37°57' E 023°35'0 0.0
2014-Jul-24 16:31N 37°57' E 023°35'0 0.0
2014-Jul-24 15:31N 37°57' E 023°35'0 0.0
2014-Jul-24 14:31N 37°57' E 023°35'0 0.0
2014-Jul-24 13:31N 37°57' E 023°35'0 0.0
2014-Jul-24 12:31N 37°57' E 023°35'0 0.0
2014-Jul-24 10:13N 37°57' E 023°35'0 0.0
2014-Jul-24 09:31N 37°57' E 023°35'0 0.0
2014-Jul-24 08:31N 37°57' E 023°35'0 0.0
2014-Jul-24 07:31N 37°57' E 023°35'0 0.0
2014-Jul-24 06:31N 37°57' E 023°35'0 0.0
2014-Jul-24 05:33N 37°57' E 023°35'5 4.9
2014-Jul-24 04:34N 37°52' E 023°34'1 1.2
2014-Jul-24 03:32N 37°52' E 023°32'0 0.0
2014-Jul-24 02:32N 37°52' E 023°32'0 0.0
2014-Jul-24 01:32N 37°52' E 023°32'0 0.0
2014-Jul-24 00:32N 37°52' E 023°32'0 0.0
2014-Jul-23 23:32N 37°52' E 023°32'0 0.0
2014-Jul-23 22:32N 37°52' E 023°32'0 0.0
2014-Jul-23 21:32N 37°52' E 023°32'0 0.0
2014-Jul-23 20:32N 37°52' E 023°32'0 0.0
2014-Jul-23 19:32N 37°52' E 023°32'0 0.3
2014-Jul-23 18:32N 37°52' E 023°32'0 0.1
2014-Jul-23 17:32N 37°52' E 023°32'0 0.0
2014-Jul-23 16:32N 37°52' E 023°32'0 0.0
2014-Jul-23 15:29N 37°52' E 023°32'0 0.0
2014-Jul-23 14:32N 37°52' E 023°32'0 0.1
2014-Jul-23 13:32N 37°52' E 023°32'5 5.4
2014-Jul-23 12:34N 37°51' E 023°38'1211.7
2014-Jul-23 11:33N 37°40' E 023°45'2311.3
2014-Jul-23 09:31N 37°17' E 023°43'3213.2
2014-Jul-23 07:04N 36°46' E 023°32'1112.9
2014-Jul-23 06:14N 36°37' E 023°25'1012.7
2014-Jul-23 05:26N 36°28' E 023°18'1612.0
2014-Jul-23 04:06N 36°25' E 022°59'813.2
2014-Jul-23 03:29N 36°24' E 022°49'  
2014-Jul-19 11:11N 37°25' E 024°01'913.6
2014-Jul-19 10:32N 37°33' E 024°07'1613.3
2014-Jul-19 09:22N 37°45' E 024°19'109 2.5
2014-Jul-17 13:28N 39°34' E 024°15'  
Track history (hours):
 
Tides and Currents Weather Stations Pressure Air Temp Water Temp Dewpoint Dewpoint Depression Visibility Wind Speed Wind Dir Waves Ship Positions

Ital Oriente

Last reported at 2014-Jul-26 08:26 UTC. Time now 2014-Jul-26 09:09 UTC.
Position N 40°56' E 028°53'.

Length 222 m; draft 9.1 m.

Type: Cargo ship. MMSI: 636091278.

Date/timePositionNaut miles runAvg speedWind from/ knotsBaromVisibWave heightAir tempDewpointWater temp
2014-Jul-26 08:26N 40°56' E 028°53'7 3.5
2014-Jul-26 06:24N 41°00' E 029°01'0 0.0
2014-Jul-26 05:24N 41°00' E 029°01'0 0.0
2014-Jul-26 04:18N 41°00' E 029°01'0 0.0
2014-Jul-26 01:30N 41°00' E 029°01'0 0.0
2014-Jul-26 00:30N 41°00' E 029°01'0 0.0
2014-Jul-25 23:24N 41°00' E 029°01'0 0.5
2014-Jul-25 22:27N 41°00' E 028°60'5 5.8
2014-Jul-25 21:33N 40°55' E 028°58'1715.7
2014-Jul-25 20:28N 40°50' E 028°37'14614.7
2014-Jul-25 10:31N 39°44' E 025°45'5714.3
2014-Jul-25 06:33N 38°53' E 025°14'6416.1
2014-Jul-25 02:33N 37°56' E 024°35'3115.7
2014-Jul-25 00:33N 37°36' E 024°05'1515.3
2014-Jul-24 23:33N 37°37' E 023°46'1615.3
2014-Jul-24 22:33N 37°51' E 023°37'7 3.2
2014-Jul-24 20:31N 37°57' E 023°35'0 0.0
2014-Jul-24 19:31N 37°57' E 023°35'0 0.0
2014-Jul-24 18:31N 37°57' E 023°35'0 0.0
2014-Jul-24 17:31N 37°57' E 023°35'0 0.0
2014-Jul-24 16:31N 37°57' E 023°35'0 0.0
2014-Jul-24 15:31N 37°57' E 023°35'0 0.0
2014-Jul-24 14:31N 37°57' E 023°35'0 0.0
2014-Jul-24 13:31N 37°57' E 023°35'0 0.0
2014-Jul-24 12:31N 37°57' E 023°35'0 0.0
2014-Jul-24 10:13N 37°57' E 023°35'0 0.0
2014-Jul-24 09:31N 37°57' E 023°35'0 0.0
2014-Jul-24 08:31N 37°57' E 023°35'0 0.0
2014-Jul-24 07:31N 37°57' E 023°35'0 0.0
2014-Jul-24 06:31N 37°57' E 023°35'0 0.0
2014-Jul-24 05:33N 37°57' E 023°35'5 4.9
2014-Jul-24 04:34N 37°52' E 023°34'1 1.2
2014-Jul-24 03:32N 37°52' E 023°32'0 0.0
2014-Jul-24 02:32N 37°52' E 023°32'0 0.0
2014-Jul-24 01:32N 37°52' E 023°32'0 0.0
2014-Jul-24 00:32N 37°52' E 023°32'0 0.0
2014-Jul-23 23:32N 37°52' E 023°32'0 0.0
2014-Jul-23 22:32N 37°52' E 023°32'0 0.0
2014-Jul-23 21:32N 37°52' E 023°32'0 0.0
2014-Jul-23 20:32N 37°52' E 023°32'0 0.0
2014-Jul-23 19:32N 37°52' E 023°32'0 0.3
2014-Jul-23 18:32N 37°52' E 023°32'0 0.1
2014-Jul-23 17:32N 37°52' E 023°32'0 0.0
2014-Jul-23 16:32N 37°52' E 023°32'0 0.0
2014-Jul-23 15:29N 37°52' E 023°32'0 0.0
2014-Jul-23 14:32N 37°52' E 023°32'0 0.1
2014-Jul-23 13:32N 37°52' E 023°32'5 5.4
2014-Jul-23 12:34N 37°51' E 023°38'1211.7
2014-Jul-23 11:33N 37°40' E 023°45'2311.3
2014-Jul-23 09:31N 37°17' E 023°43'3213.2
2014-Jul-23 07:04N 36°46' E 023°32'1112.9
2014-Jul-23 06:14N 36°37' E 023°25'1012.7
2014-Jul-23 05:26N 36°28' E 023°18'1612.0
2014-Jul-23 04:06N 36°25' E 022°59'813.2
2014-Jul-23 03:29N 36°24' E 022°49'  
2014-Jul-19 11:11N 37°25' E 024°01'913.6
2014-Jul-19 10:32N 37°33' E 024°07'1613.3
2014-Jul-19 09:22N 37°45' E 024°19'109 2.5
2014-Jul-17 13:28N 39°34' E 024°15'  

Dump ship's entire track history